createdAt,value
2019-04-11T00:02:00.504Z,99.90
2019-04-11T00:21:57.414Z,99.90
2019-04-11T00:24:27.237Z,99.90
2019-04-11T00:34:24.764Z,96.80
2019-04-11T00:41:54.395Z,99.90
2019-04-11T00:44:24.891Z,99.90
2019-04-11T00:49:24.207Z,99.90
2019-04-11T01:01:54.325Z,99.90
2019-04-11T01:04:23.739Z,99.90
2019-04-11T01:09:24.280Z,99.90
2019-04-11T01:11:54.296Z,99.90
2019-04-11T01:14:23.930Z,99.90
2019-04-11T01:19:24.756Z,99.00
2019-04-11T01:21:54.959Z,99.90
2019-04-11T01:29:23.708Z,99.90
2019-04-11T01:31:54.866Z,99.90
2019-04-11T01:39:25.368Z,99.90
2019-04-11T01:44:25.012Z,99.90
2019-04-11T01:49:25.356Z,99.90
2019-04-11T01:51:55.995Z,99.90
2019-04-11T01:54:25.863Z,99.90
2019-04-11T01:59:25.284Z,99.90
2019-04-11T02:07:24.747Z,99.90
2019-04-11T02:09:54.770Z,99.90
2019-04-11T02:14:53.424Z,99.90
2019-04-11T02:19:52.343Z,99.90
2019-04-11T02:22:29.268Z,99.90
2019-04-11T02:27:30.837Z,99.90
2019-04-11T02:30:01.175Z,99.90
2019-04-11T02:32:31.940Z,99.90
2019-04-11T02:42:35.631Z,99.90
2019-04-11T02:52:42.217Z,99.90
2019-04-11T02:57:43.433Z,99.90
2019-04-11T03:00:13.248Z,99.90
2019-04-11T03:02:44.433Z,99.90
2019-04-11T03:10:14.153Z,99.90
2019-04-11T03:17:47.871Z,99.90
2019-04-11T03:20:26.589Z,99.90
2019-04-11T03:25:20.116Z,99.90
2019-04-11T03:27:51.619Z,99.90
2019-04-11T03:30:30.352Z,99.90
2019-04-11T03:40:43.678Z,99.90
2019-04-11T03:45:48.308Z,99.90
2019-04-11T03:48:16.684Z,99.90
2019-04-11T03:53:03.855Z,99.90
2019-04-11T03:58:03.820Z,99.90
2019-04-11T04:03:06.182Z,99.90
2019-04-11T04:05:36.874Z,99.90
2019-04-11T04:10:41.752Z,99.90
2019-04-11T04:18:16.682Z,99.90
2019-04-11T04:21:04.322Z,99.90
2019-04-11T04:23:37.839Z,99.90
2019-04-11T04:28:40.707Z,99.90
2019-04-11T04:33:40.965Z,99.90
2019-04-11T04:36:11.267Z,99.90
2019-04-11T04:41:22.309Z,99.90
2019-04-11T04:46:30.807Z,99.90
2019-04-11T04:56:22.817Z,99.90
2019-04-11T04:58:50.672Z,99.90
2019-04-11T05:01:21.748Z,99.90
2019-04-11T05:03:51.091Z,99.90
2019-04-11T05:08:51.418Z,99.90
2019-04-11T05:13:51.744Z,99.90
2019-04-11T05:16:21.407Z,99.90
2019-04-11T05:21:21.192Z,99.90
2019-04-11T05:26:19.937Z,99.90
2019-04-11T05:28:49.322Z,99.90
2019-04-11T05:31:18.853Z,99.90
2019-04-11T05:36:18.591Z,99.90
2019-04-11T05:38:48.648Z,99.90
2019-04-11T05:41:20.521Z,99.90
2019-04-11T05:46:31.033Z,99.90
2019-04-11T05:48:58.949Z,99.90
2019-04-11T05:51:26.441Z,98.70
2019-04-11T05:59:03.618Z,99.90
2019-04-11T06:01:34.681Z,99.90
2019-04-11T06:04:06.078Z,96.40
2019-04-11T06:06:40.656Z,99.30
2019-04-11T06:09:15.904Z,98.60
2019-04-11T06:14:20.745Z,97.00
2019-04-11T06:19:24.934Z,96.10
2019-04-11T06:27:11.354Z,94.10
2019-04-11T06:29:59.245Z,94.20
2019-04-11T06:35:17.411Z,90.90
2019-04-11T06:38:04.318Z,88.50
2019-04-11T06:40:48.127Z,92.80
2019-04-11T06:45:54.428Z,92.50
2019-04-11T06:48:38.052Z,92.60
2019-04-11T06:51:09.630Z,92.80
2019-04-11T06:56:12.495Z,92.90
2019-04-11T06:58:46.423Z,92.80
2019-04-11T07:03:53.178Z,92.80
2019-04-11T07:06:27.298Z,92.90
2019-04-11T07:09:14.506Z,92.90
2019-04-11T07:11:52.653Z,92.90
2019-04-11T07:33:22.381Z,94.50
2019-04-11T07:38:52.179Z,94.90
2019-04-11T07:41:34.006Z,93.30
2019-04-11T07:44:04.267Z,95.20
2019-04-11T07:49:38.834Z,94.80
2019-04-11T07:54:41.600Z,95.00
2019-04-11T07:57:19.321Z,94.30
2019-04-11T08:00:00.118Z,94.30
2019-04-11T08:02:47.915Z,93.20
2019-04-11T08:05:19.416Z,93.30
2019-04-11T08:07:57.346Z,87.10
2019-04-11T08:13:16.497Z,91.70
2019-04-11T08:16:04.373Z,91.80
2019-04-11T08:23:47.754Z,85.60
2019-04-11T08:29:10.620Z,89.40
2019-04-11T08:34:27.133Z,90.40
2019-04-11T08:37:14.302Z,90.80
2019-04-11T08:39:44.934Z,90.70
2019-04-11T08:42:25.441Z,90.40
2019-04-11T08:44:54.832Z,90.40
2019-04-11T08:49:54.319Z,90.00
2019-04-11T08:52:27.830Z,89.00
2019-04-11T09:05:38.970Z,87.00
2019-04-11T09:08:16.398Z,86.70
2019-04-11T09:19:06.282Z,90.20
2019-04-11T09:21:37.990Z,89.90
2019-04-11T09:24:18.777Z,90.10
2019-04-11T09:32:26.515Z,90.70
2019-04-11T09:35:10.278Z,90.60
2019-04-11T09:40:11.949Z,89.60
2019-04-11T09:51:00.874Z,88.30
2019-04-11T09:56:11.008Z,90.00
2019-04-11T09:58:42.051Z,90.00
2019-04-11T10:01:28.782Z,90.10
2019-04-11T10:03:59.469Z,90.40
2019-04-11T10:09:18.120Z,89.60
2019-04-11T10:11:52.576Z,79.30
2019-04-11T10:16:56.202Z,87.50
2019-04-11T10:24:48.455Z,85.20
2019-04-11T10:27:20.509Z,75.10
2019-04-11T10:30:07.285Z,74.10
2019-04-11T10:32:51.744Z,83.60
2019-04-11T10:35:38.742Z,82.90
2019-04-11T10:38:09.595Z,74.90
2019-04-11T10:40:56.829Z,84.00
2019-04-11T10:48:47.432Z,83.30
2019-04-11T10:51:22.665Z,83.90
2019-04-11T10:56:28.416Z,84.10
2019-04-11T10:58:57.899Z,84.40
2019-04-11T11:01:34.451Z,83.10
2019-04-11T11:04:05.509Z,82.70
2019-04-11T11:06:35.914Z,81.60
2019-04-11T11:09:14.651Z,80.70
2019-04-11T11:11:46.248Z,80.60
2019-04-11T11:30:40.466Z,81.90
2019-04-11T11:33:11.513Z,83.30
2019-04-11T11:38:26.103Z,80.10
2019-04-11T11:41:14.284Z,75.20
2019-04-11T11:46:14.605Z,83.40
2019-04-11T11:51:27.030Z,76.10
2019-04-11T11:56:47.840Z,81.50
2019-04-11T11:59:19.787Z,81.80
2019-04-11T12:01:52.567Z,75.90
2019-04-11T12:04:35.431Z,71.60
2019-04-11T12:12:40.619Z,80.70
2019-04-11T12:20:31.172Z,81.90
2019-04-11T12:28:07.650Z,83.40
2019-04-11T12:30:37.517Z,82.80
2019-04-11T12:33:11.220Z,83.50
2019-04-11T12:49:01.568Z,82.30
2019-04-11T12:54:19.501Z,72.00
2019-04-11T12:59:19.783Z,81.40
2019-04-11T13:04:21.570Z,82.50
2019-04-11T13:09:28.885Z,83.00
2019-04-11T13:12:15.554Z,83.40
2019-04-11T13:14:55.053Z,83.10
2019-04-11T13:20:14.281Z,82.10
2019-04-11T13:30:32.327Z,80.90
2019-04-11T13:35:35.311Z,80.60
2019-04-11T13:38:09.058Z,80.50
2019-04-11T13:43:26.228Z,78.50
2019-04-11T13:49:00.177Z,69.70
2019-04-11T13:51:31.175Z,79.20
2019-04-11T13:59:34.531Z,79.30
2019-04-11T14:02:17.543Z,79.00
2019-04-11T14:04:48.538Z,78.60
2019-04-11T14:07:18.794Z,77.70
2019-04-11T14:09:49.881Z,76.50
2019-04-11T14:25:01.705Z,76.80
2019-04-11T14:32:44.982Z,83.00
2019-04-11T14:35:21.788Z,82.90
2019-04-11T14:40:32.198Z,83.70
2019-04-11T14:48:19.194Z,82.00
2019-04-11T14:51:01.989Z,77.70
2019-04-11T15:01:32.577Z,82.40
2019-04-11T15:06:37.287Z,82.60
2019-04-11T15:17:21.651Z,78.10
2019-04-11T15:19:52.652Z,83.90
2019-04-11T15:36:18.306Z,82.90
2019-04-11T15:46:33.484Z,72.30
2019-04-11T15:51:37.726Z,82.10
2019-04-11T15:59:34.810Z,78.40
2019-04-11T16:02:11.864Z,81.60
2019-04-11T16:07:16.313Z,81.20
2019-04-11T16:09:47.374Z,81.50
2019-04-11T16:15:18.654Z,80.50
2019-04-11T16:28:00.679Z,81.10
2019-04-11T16:33:08.726Z,81.00
2019-04-11T16:35:48.396Z,81.00
2019-04-11T16:40:53.448Z,81.60
2019-04-11T16:43:24.469Z,81.10
2019-04-11T16:46:11.063Z,74.00
2019-04-11T16:51:09.600Z,79.50
2019-04-11T17:08:56.126Z,81.20
2019-04-11T17:11:26.733Z,81.10
2019-04-11T17:16:29.819Z,80.80
2019-04-11T17:28:54.507Z,82.30
2019-04-11T17:31:25.945Z,83.40
2019-04-11T17:36:25.919Z,83.60
2019-04-11T17:43:55.374Z,84.80
2019-04-11T17:58:58.731Z,86.50
2019-04-11T18:01:28.387Z,87.70
2019-04-11T18:06:40.080Z,87.50
2019-04-11T18:11:40.933Z,88.20
2019-04-11T18:16:39.443Z,79.40
2019-04-11T18:19:09.840Z,77.00
2019-04-11T18:21:40.556Z,79.10
2019-04-11T18:31:37.800Z,89.10
2019-04-11T18:34:07.193Z,89.20
2019-04-11T18:39:08.245Z,86.20
2019-04-11T18:41:41.546Z,90.10
2019-04-11T18:44:22.698Z,88.80
2019-04-11T18:49:21.818Z,90.00
2019-04-11T18:54:26.694Z,90.10
2019-04-11T19:07:00.070Z,90.40
2019-04-11T19:24:35.036Z,90.50
2019-04-11T19:36:54.959Z,90.40
2019-04-11T19:39:24.292Z,90.30
2019-04-11T19:44:22.830Z,90.50
2019-04-11T19:54:20.387Z,80.80
2019-04-11T20:09:21.580Z,90.10
2019-04-11T20:11:50.918Z,86.70
2019-04-11T20:16:51.940Z,90.20
2019-04-11T20:21:53.877Z,89.80
2019-04-11T20:29:22.456Z,90.10
2019-04-11T20:31:51.812Z,90.00
2019-04-11T20:39:22.916Z,90.20
2019-04-11T20:41:53.479Z,90.20
2019-04-11T20:49:23.842Z,80.90
2019-04-11T20:54:23.249Z,85.20
2019-04-11T20:56:52.599Z,89.30
2019-04-11T20:59:33.704Z,83.60
2019-04-11T21:01:53.662Z,88.40
2019-04-11T21:04:23.078Z,88.80
2019-04-11T21:06:52.409Z,89.30
2019-04-11T21:11:50.853Z,89.00
2019-04-11T21:24:16.972Z,86.40
2019-04-11T21:29:15.442Z,90.10
2019-04-11T21:31:45.077Z,89.60
2019-04-11T21:36:43.521Z,90.20
2019-04-11T21:39:12.853Z,88.40
2019-04-11T21:41:42.211Z,89.80
2019-04-11T21:44:11.562Z,90.00
2019-04-11T21:49:11.493Z,89.40
2019-04-11T22:01:43.351Z,89.40
2019-04-11T22:06:41.885Z,89.80
2019-04-11T22:11:40.915Z,89.60
2019-04-11T22:14:11.319Z,90.20
2019-04-11T22:31:42.710Z,91.30
2019-04-11T22:34:26.007Z,89.30
2019-04-11T22:36:59.770Z,92.00
2019-04-11T22:41:58.403Z,93.10
2019-04-11T22:46:57.133Z,94.00
2019-04-11T22:49:26.504Z,93.90
2019-04-11T22:54:25.051Z,94.80
2019-04-11T22:59:23.539Z,95.40
2019-04-11T23:01:55.044Z,95.70
2019-04-11T23:06:53.487Z,96.80
2019-04-11T23:11:51.946Z,98.00
2019-04-11T23:14:21.302Z,97.80
2019-04-11T23:26:47.099Z,94.20
2019-04-11T23:29:16.690Z,99.90
2019-04-11T23:31:46.005Z,99.90
2019-04-11T23:34:15.358Z,96.20
2019-04-11T23:39:13.818Z,96.70
2019-04-11T23:44:12.395Z,99.90
2019-04-11T23:49:11.260Z,99.90
2019-04-11T23:51:41.361Z,99.80
